sim
Sign-in with your pilot id or email,
or register
Callsign
Passwort

Schedule Details

Flight Number: DLH1965 (2)
Departure: Catania Fontanarossa Airport (LICC) at 16:55
Arrival: Munich Airport (EDDM) at 19:05
Route: Lufthansa Passenger Schedule. Enter filed route here before submitting Pirep.

Weather Information
Getting current METAR information for LICC 250250Z 22007KT CAVOK 20/18 Q1012
Getting current METAR information for EDDM 250250Z 17004KT 140V210 9999 -RA FEW008 SCT040 13/12 Q1001 TEMPO RA BKN008

Schedule Frequency

Route Map